createdAt,value
2017-11-13T00:00:36.378Z,8.77
2017-11-13T00:03:04.598Z,8.30
2017-11-13T00:05:32.043Z,8.50
2017-11-13T00:07:59.532Z,9.43
2017-11-13T00:10:26.984Z,9.90
2017-11-13T00:12:54.439Z,8.85
2017-11-13T00:15:22.008Z,10.88
2017-11-13T00:17:49.467Z,11.05
2017-11-13T00:20:16.906Z,9.35
2017-11-13T00:22:44.369Z,11.32
2017-11-13T00:25:11.822Z,11.80
2017-11-13T00:27:39.274Z,10.05
2017-11-13T00:30:06.739Z,10.25
2017-11-13T00:32:34.186Z,9.95
2017-11-13T00:35:01.648Z,8.90
2017-11-13T00:37:29.083Z,9.45
2017-11-13T00:39:56.542Z,10.27
2017-11-13T00:42:23.990Z,8.50
2017-11-13T00:44:51.450Z,9.73
2017-11-13T00:47:18.895Z,9.60
2017-11-13T00:49:46.406Z,9.18
2017-11-13T00:52:13.855Z,8.20
2017-11-13T00:54:41.306Z,8.98
2017-11-13T00:57:08.756Z,10.30
2017-11-13T00:59:36.214Z,11.70
2017-11-13T01:02:03.656Z,10.77
2017-11-13T01:04:31.110Z,12.20
2017-11-13T01:06:58.560Z,12.37
2017-11-13T01:09:26.015Z,12.18
2017-11-13T01:11:53.467Z,11.77
2017-11-13T01:14:20.955Z,10.70
2017-11-13T01:16:48.404Z,10.20
2017-11-13T01:19:15.851Z,10.00
2017-11-13T01:21:43.311Z,8.73
2017-11-13T01:24:10.764Z,11.02
2017-11-13T01:26:38.222Z,9.98
2017-11-13T01:29:05.663Z,9.95
2017-11-13T01:31:33.121Z,9.55
2017-11-13T01:34:00.608Z,9.70
2017-11-13T01:36:28.162Z,10.35
2017-11-13T01:38:55.603Z,9.50
2017-11-13T01:41:23.063Z,9.15
2017-11-13T01:43:50.510Z,9.30
2017-11-13T01:46:17.990Z,9.27
2017-11-13T01:48:45.443Z,9.68
2017-11-13T01:51:12.898Z,11.25
2017-11-13T01:53:40.363Z,9.70
2017-11-13T01:56:07.813Z,9.48
2017-11-13T01:58:35.259Z,8.15
2017-11-13T02:01:02.712Z,7.82
2017-11-13T02:03:30.155Z,9.27
2017-11-13T02:05:57.609Z,9.63
2017-11-13T02:08:25.066Z,9.35
2017-11-13T02:10:52.523Z,8.93
2017-11-13T02:13:19.970Z,9.40
2017-11-13T02:15:47.434Z,10.68
2017-11-13T02:18:14.874Z,8.48
2017-11-13T02:20:42.314Z,9.98
2017-11-13T02:23:10.538Z,10.50
2017-11-13T02:25:37.991Z,8.93
2017-11-13T02:28:05.443Z,9.77
2017-11-13T02:30:32.894Z,8.82
2017-11-13T02:33:00.352Z,8.45
2017-11-13T02:35:27.791Z,9.00
2017-11-13T02:37:55.246Z,9.55
2017-11-13T02:40:22.694Z,9.20
2017-11-13T02:42:50.915Z,8.13
2017-11-13T02:45:18.354Z,8.38
2017-11-13T02:47:45.824Z,8.07
2017-11-13T02:50:13.274Z,8.13
2017-11-13T02:52:40.729Z,8.95
2017-11-13T02:55:08.202Z,7.53
2017-11-13T02:57:35.659Z,8.75
2017-11-13T03:00:03.104Z,9.55
2017-11-13T03:02:30.572Z,7.90
2017-11-13T03:04:58.022Z,8.43
2017-11-13T03:07:25.475Z,9.18
2017-11-13T03:09:52.937Z,10.05
2017-11-13T03:12:20.378Z,8.70
2017-11-13T03:14:47.841Z,9.32
2017-11-13T03:17:15.290Z,8.00
2017-11-13T03:19:42.742Z,7.72
2017-11-13T03:22:10.178Z,8.68
2017-11-13T03:24:37.632Z,8.65
2017-11-13T03:27:05.140Z,7.97
2017-11-13T03:29:32.599Z,9.27
2017-11-13T03:32:00.035Z,9.40
2017-11-13T03:34:27.490Z,8.10
2017-11-13T03:36:54.963Z,8.32
2017-11-13T03:39:22.423Z,9.32
2017-11-13T03:41:49.866Z,9.15
2017-11-13T03:44:17.330Z,8.60
2017-11-13T03:46:44.775Z,8.40
2017-11-13T03:49:12.240Z,10.57
2017-11-13T03:51:39.702Z,10.23
2017-11-13T03:54:07.179Z,10.05
2017-11-13T03:56:34.641Z,10.52
2017-11-13T03:59:02.079Z,10.20
2017-11-13T04:01:29.535Z,10.73
2017-11-13T04:03:56.983Z,10.15
2017-11-13T04:06:24.439Z,10.93
2017-11-13T04:08:52.864Z,9.95
2017-11-13T04:11:21.086Z,9.60
2017-11-13T04:13:48.560Z,11.00
2017-11-13T04:16:16.019Z,12.43
2017-11-13T04:18:43.471Z,12.93
2017-11-13T04:21:10.928Z,15.73
2017-11-13T04:23:38.387Z,11.55
2017-11-13T04:26:05.844Z,11.00
2017-11-13T04:28:33.290Z,11.93
2017-11-13T04:31:00.855Z,10.50
2017-11-13T04:33:28.312Z,12.82
2017-11-13T04:35:55.866Z,11.38
2017-11-13T04:38:23.430Z,13.60
2017-11-13T04:40:50.898Z,11.25
2017-11-13T04:43:18.349Z,12.30
2017-11-13T04:45:45.851Z,12.02
2017-11-13T04:48:13.293Z,12.50
2017-11-13T04:50:41.520Z,12.82
2017-11-13T04:53:08.986Z,12.60
2017-11-13T04:55:36.431Z,12.90
2017-11-13T04:58:03.891Z,11.10
2017-11-13T05:00:31.330Z,11.25
2017-11-13T05:02:58.787Z,12.30
2017-11-13T05:05:26.244Z,12.60
2017-11-13T05:07:53.700Z,14.55
2017-11-13T05:10:21.154Z,12.63
2017-11-13T05:12:48.634Z,12.02
2017-11-13T05:15:16.075Z,14.15
2017-11-13T05:17:43.540Z,14.30
2017-11-13T05:20:10.982Z,12.82
2017-11-13T05:22:38.446Z,11.20
2017-11-13T05:25:06.796Z,12.00
2017-11-13T05:27:34.247Z,11.60
2017-11-13T05:30:01.702Z,11.80
2017-11-13T05:32:29.916Z,12.07
2017-11-13T05:34:57.373Z,12.77
2017-11-13T05:37:24.829Z,13.43
2017-11-13T05:39:52.282Z,11.90
2017-11-13T05:42:19.726Z,12.25
2017-11-13T05:44:47.188Z,12.98
2017-11-13T05:47:14.649Z,12.88
2017-11-13T05:49:42.102Z,12.77
2017-11-13T05:52:09.555Z,12.65
2017-11-13T05:54:37.011Z,11.70
2017-11-13T05:57:04.466Z,12.02
2017-11-13T05:59:31.932Z,12.40
2017-11-13T06:01:59.365Z,12.70
2017-11-13T06:04:26.830Z,14.10
2017-11-13T06:06:54.274Z,13.75
2017-11-13T06:09:21.727Z,12.27
2017-11-13T06:11:49.178Z,15.35
2017-11-13T06:14:17.406Z,15.25
2017-11-13T06:16:44.856Z,14.63
2017-11-13T06:19:12.426Z,15.57
2017-11-13T06:21:39.875Z,15.25
2017-11-13T06:24:07.345Z,13.43
2017-11-13T06:26:34.794Z,14.38
2017-11-13T06:29:02.237Z,15.60
2017-11-13T06:31:29.701Z,14.77
2017-11-13T06:33:57.158Z,13.60
2017-11-13T06:36:24.619Z,12.20
2017-11-13T06:38:52.075Z,12.13
2017-11-13T06:41:19.638Z,12.70
2017-11-13T06:43:47.089Z,11.25
2017-11-13T06:46:14.544Z,9.95
2017-11-13T06:48:41.997Z,11.38
2017-11-13T06:51:09.450Z,11.82
2017-11-13T06:53:36.899Z,11.07
2017-11-13T06:56:04.359Z,11.45
2017-11-13T06:58:31.802Z,12.15
2017-11-13T07:00:59.271Z,11.02
2017-11-13T07:03:26.746Z,11.18
2017-11-13T07:05:54.205Z,12.05
2017-11-13T07:08:21.650Z,11.27
2017-11-13T07:10:49.112Z,10.98
2017-11-13T07:13:16.565Z,11.52
2017-11-13T07:15:44.015Z,12.35
2017-11-13T07:18:11.475Z,12.10
2017-11-13T07:20:38.944Z,15.10
2017-11-13T07:23:06.398Z,12.27
2017-11-13T07:25:33.849Z,17.08
2017-11-13T07:28:01.519Z,15.25
2017-11-13T07:30:28.967Z,19.77
2017-11-13T07:32:56.444Z,11.93
2017-11-13T07:35:23.887Z,10.32
2017-11-13T07:37:51.344Z,11.57
2017-11-13T07:40:18.791Z,8.98
2017-11-13T07:42:46.253Z,9.70
2017-11-13T07:45:13.717Z,11.70
2017-11-13T07:47:41.163Z,11.65
2017-11-13T07:50:08.619Z,9.85
2017-11-13T07:52:36.178Z,12.00
2017-11-13T07:55:03.633Z,11.55
2017-11-13T07:57:31.120Z,11.15
2017-11-13T07:59:58.670Z,11.07
2017-11-13T08:02:26.129Z,12.30
2017-11-13T08:04:53.581Z,12.23
2017-11-13T08:07:21.048Z,14.57
2017-11-13T08:09:48.509Z,18.52
2017-11-13T08:12:15.956Z,18.25
2017-11-13T08:14:43.410Z,20.67
2017-11-13T08:17:10.870Z,16.52
2017-11-13T08:19:39.082Z,25.92
2017-11-13T08:22:06.535Z,15.63
2017-11-13T08:24:33.997Z,16.70
2017-11-13T08:27:01.447Z,15.80
2017-11-13T08:29:28.961Z,14.65
2017-11-13T08:31:56.412Z,13.52
2017-11-13T08:34:23.869Z,12.30
2017-11-13T08:36:51.319Z,14.35
2017-11-13T08:39:18.780Z,13.20
2017-11-13T08:41:46.218Z,12.75
2017-11-13T08:44:13.678Z,11.55
2017-11-13T08:46:41.127Z,12.70
2017-11-13T08:49:08.578Z,11.27
2017-11-13T08:51:36.037Z,12.30
2017-11-13T08:54:03.486Z,11.32
2017-11-13T08:56:30.939Z,14.02
2017-11-13T08:58:58.431Z,11.12
2017-11-13T09:01:25.885Z,11.43
2017-11-13T09:03:53.338Z,12.00
2017-11-13T09:06:20.787Z,12.18
2017-11-13T09:08:48.235Z,10.48
2017-11-13T09:11:15.690Z,10.27
2017-11-13T09:13:43.176Z,10.50
2017-11-13T09:16:10.634Z,11.27
2017-11-13T09:18:38.859Z,12.10
2017-11-13T09:21:06.311Z,10.25
2017-11-13T09:23:33.759Z,12.07
2017-11-13T09:26:01.984Z,10.50
2017-11-13T09:28:29.449Z,10.60
2017-11-13T09:30:56.909Z,9.30
2017-11-13T09:33:24.359Z,10.07
2017-11-13T09:35:51.815Z,10.15
2017-11-13T09:38:19.262Z,10.43
2017-11-13T09:40:46.718Z,10.23
2017-11-13T09:43:14.166Z,9.60
2017-11-13T09:45:41.631Z,10.18
2017-11-13T09:48:09.088Z,11.65
2017-11-13T09:50:36.541Z,9.50
2017-11-13T09:53:03.993Z,11.12
2017-11-13T09:55:31.463Z,11.40
2017-11-13T09:57:58.913Z,11.52
2017-11-13T10:00:26.366Z,12.80
2017-11-13T10:02:53.816Z,11.38
2017-11-13T10:05:21.290Z,11.65
2017-11-13T10:07:48.739Z,10.50
2017-11-13T10:10:16.191Z,9.25
2017-11-13T10:12:43.651Z,11.88
2017-11-13T10:15:11.094Z,9.88
2017-11-13T10:17:38.551Z,13.07
2017-11-13T10:20:06.023Z,10.52
2017-11-13T10:22:33.464Z,11.02
2017-11-13T10:25:00.914Z,12.63
2017-11-13T10:27:28.375Z,12.37
2017-11-13T10:29:55.827Z,11.80
2017-11-13T10:32:23.292Z,11.88
2017-11-13T10:34:50.745Z,9.93
2017-11-13T10:37:18.206Z,12.32
2017-11-13T10:39:45.691Z,12.23
2017-11-13T10:42:13.246Z,12.15
2017-11-13T10:44:40.817Z,13.85
2017-11-13T10:47:08.262Z,14.07
2017-11-13T10:49:35.711Z,13.02
2017-11-13T10:52:03.158Z,15.77
2017-11-13T10:54:30.619Z,14.38
2017-11-13T10:56:58.074Z,11.80
2017-11-13T10:59:25.539Z,13.10
2017-11-13T11:01:52.991Z,12.13
2017-11-13T11:04:20.444Z,11.60
2017-11-13T11:06:47.908Z,13.10
2017-11-13T11:09:15.353Z,12.07
2017-11-13T11:11:42.812Z,12.90
2017-11-13T11:14:10.263Z,12.82
2017-11-13T11:16:53.563Z,14.35
2017-11-13T11:19:21.802Z,12.52
2017-11-13T11:21:49.254Z,13.50
2017-11-13T11:24:16.711Z,14.00
2017-11-13T11:26:56.871Z,12.50
2017-11-13T11:29:26.223Z,14.20
2017-11-13T11:31:56.283Z,11.20
2017-11-13T11:34:29.519Z,11.10
2017-11-13T11:37:01.640Z,11.55
2017-11-13T11:39:29.094Z,10.65
2017-11-13T11:41:56.538Z,11.35
2017-11-13T11:44:26.834Z,11.40
2017-11-13T11:46:54.295Z,10.60
2017-11-13T11:49:22.646Z,11.30
2017-11-13T11:51:50.858Z,9.77
2017-11-13T11:54:20.915Z,11.27
2017-11-13T11:56:59.036Z,9.50
2017-11-13T11:59:27.257Z,9.10
2017-11-13T12:01:54.702Z,9.77
2017-11-13T12:04:22.163Z,11.38
2017-11-13T12:06:49.615Z,11.07
2017-11-13T12:09:17.067Z,9.10
2017-11-13T12:11:44.524Z,9.80
2017-11-13T12:14:11.983Z,10.38
2017-11-13T12:16:39.440Z,11.07
2017-11-13T12:19:06.895Z,8.23
2017-11-13T12:21:34.351Z,9.30
2017-11-13T12:24:01.944Z,8.60
2017-11-13T12:26:29.400Z,8.15
2017-11-13T12:28:56.851Z,8.90
2017-11-13T12:31:24.299Z,9.40
2017-11-13T12:33:51.758Z,10.00
2017-11-13T12:36:19.222Z,12.88
2017-11-13T12:38:46.670Z,9.20
2017-11-13T12:41:14.119Z,8.32
2017-11-13T12:43:41.571Z,8.05
2017-11-13T12:46:09.047Z,8.98
2017-11-13T12:48:36.499Z,8.48
2017-11-13T12:51:04.063Z,8.07
2017-11-13T12:53:31.518Z,8.15
2017-11-13T12:55:58.988Z,8.70
2017-11-13T12:58:26.451Z,11.55
2017-11-13T13:00:53.908Z,9.25
2017-11-13T13:03:21.362Z,10.25
2017-11-13T13:05:48.821Z,8.77
2017-11-13T13:08:16.275Z,9.07
2017-11-13T13:10:43.752Z,9.93
2017-11-13T13:13:11.970Z,8.48
2017-11-13T13:15:39.420Z,9.75
2017-11-13T13:18:06.886Z,10.02
2017-11-13T13:20:34.339Z,6.00
2017-11-13T13:23:01.800Z,8.02
2017-11-13T13:25:29.250Z,7.25
2017-11-13T13:27:56.711Z,8.25
2017-11-13T13:30:24.147Z,8.35
2017-11-13T13:32:51.620Z,5.20
2017-11-13T13:35:19.078Z,7.97
2017-11-13T13:37:46.658Z,7.62
2017-11-13T13:40:14.118Z,6.43
2017-11-13T13:42:41.581Z,7.35
2017-11-13T13:45:09.032Z,5.70
2017-11-13T13:47:36.483Z,5.90
2017-11-13T13:50:03.937Z,5.75
2017-11-13T13:52:31.391Z,6.15
2017-11-13T13:54:58.848Z,6.57
2017-11-13T13:57:26.319Z,6.12
2017-11-13T13:59:53.759Z,7.40
2017-11-13T14:02:21.214Z,8.00
2017-11-13T14:04:48.670Z,9.60
2017-11-13T14:07:16.114Z,9.00
2017-11-13T14:09:43.588Z,7.37
2017-11-13T14:12:11.033Z,8.02
2017-11-13T14:14:38.486Z,8.57
2017-11-13T14:17:05.936Z,4.47
2017-11-13T14:19:33.392Z,6.18
2017-11-13T14:22:00.831Z,3.70
2017-11-13T14:24:28.281Z,1.87
2017-11-13T14:26:56.481Z,5.37
2017-11-13T14:29:23.940Z,10.07
2017-11-13T14:31:51.381Z,6.20
2017-11-13T14:34:18.835Z,7.60
2017-11-13T14:36:46.274Z,6.87
2017-11-13T14:39:14.512Z,4.90
2017-11-13T14:41:41.952Z,4.20
2017-11-13T14:44:09.413Z,4.20
2017-11-13T14:46:36.878Z,4.15
2017-11-13T14:49:04.335Z,5.57
2017-11-13T14:51:31.779Z,6.22
2017-11-13T14:53:59.231Z,8.38
2017-11-13T14:56:26.676Z,6.10
2017-11-13T14:58:54.127Z,6.72
2017-11-13T15:01:21.571Z,8.13
2017-11-13T15:03:49.075Z,11.40
2017-11-13T15:06:16.527Z,12.57
2017-11-13T15:08:44.094Z,13.62
2017-11-13T15:11:11.551Z,13.18
2017-11-13T15:13:39.111Z,8.07
2017-11-13T15:16:06.554Z,8.65
2017-11-13T15:18:34.008Z,10.38
2017-11-13T15:21:01.585Z,10.95
2017-11-13T15:23:29.038Z,10.63
2017-11-13T15:25:56.501Z,16.45
2017-11-13T15:28:23.958Z,12.27
2017-11-13T15:30:51.401Z,8.80
2017-11-13T15:33:18.854Z,11.90
2017-11-13T15:35:46.325Z,13.50
2017-11-13T15:38:13.782Z,15.68
2017-11-13T15:40:41.242Z,12.90
2017-11-13T15:43:08.695Z,13.10
2017-11-13T15:45:36.161Z,11.88
2017-11-13T15:48:03.702Z,12.82
2017-11-13T15:50:31.159Z,14.87
2017-11-13T15:52:58.610Z,11.90
2017-11-13T15:55:26.067Z,18.90
2017-11-13T15:57:53.529Z,16.90
2017-11-13T16:00:20.989Z,13.25
2017-11-13T16:02:48.442Z,13.68
2017-11-13T16:05:16.103Z,12.73
2017-11-13T16:07:43.554Z,15.30
2017-11-13T16:10:11.010Z,16.25
2017-11-13T16:12:38.462Z,15.52
2017-11-13T16:15:05.941Z,22.08
2017-11-13T16:17:33.399Z,15.45
2017-11-13T16:20:00.859Z,17.02
2017-11-13T16:22:28.313Z,17.67
2017-11-13T16:24:55.765Z,17.10
2017-11-13T16:27:23.231Z,11.52
2017-11-13T16:29:50.678Z,10.82
2017-11-13T16:32:18.139Z,13.30
2017-11-13T16:34:45.591Z,11.80
2017-11-13T16:37:13.054Z,12.07
2017-11-13T16:39:40.507Z,15.65
2017-11-13T16:42:07.972Z,11.45
2017-11-13T16:44:35.506Z,11.50
2017-11-13T16:47:02.963Z,10.57
2017-11-13T16:49:30.414Z,10.00
2017-11-13T16:51:57.872Z,10.18
2017-11-13T16:54:25.317Z,11.18
2017-11-13T16:56:52.799Z,13.68
2017-11-13T16:59:20.246Z,12.77
2017-11-13T17:01:47.719Z,12.80
2017-11-13T17:04:15.174Z,12.70
2017-11-13T17:06:42.632Z,14.65
2017-11-13T17:09:10.088Z,12.15
2017-11-13T17:11:37.535Z,21.48
2017-11-13T17:14:04.994Z,17.85
2017-11-13T17:16:32.430Z,25.52
2017-11-13T17:18:59.886Z,30.62
2017-11-13T17:21:27.339Z,42.75
2017-11-13T17:23:54.805Z,24.87
2017-11-13T17:26:22.246Z,18.70
2017-11-13T17:28:49.703Z,18.33
2017-11-13T17:31:17.160Z,14.73
2017-11-13T17:33:44.618Z,17.80
2017-11-13T17:36:12.062Z,15.63
2017-11-13T17:38:39.526Z,15.45
2017-11-13T17:41:06.985Z,16.35
2017-11-13T17:43:34.442Z,16.25
2017-11-13T17:46:01.895Z,14.25
2017-11-13T17:48:29.370Z,15.13
2017-11-13T17:50:56.817Z,14.07
2017-11-13T17:53:24.271Z,16.30
2017-11-13T17:55:51.956Z,16.48
2017-11-13T17:58:19.406Z,17.10
2017-11-13T18:00:46.966Z,18.92
2017-11-13T18:03:14.417Z,17.67
2017-11-13T18:05:41.908Z,20.17
2017-11-13T18:08:09.349Z,17.77
2017-11-13T18:10:36.810Z,19.98
2017-11-13T18:13:04.262Z,20.88
2017-11-13T18:15:31.925Z,21.23
2017-11-13T18:17:59.375Z,22.05
2017-11-13T18:20:26.830Z,23.20
2017-11-13T18:22:54.281Z,24.50
2017-11-13T18:25:21.730Z,26.30
2017-11-13T18:27:49.171Z,24.33
2017-11-13T18:30:16.625Z,24.23
2017-11-13T18:32:44.080Z,25.33
2017-11-13T18:35:11.536Z,22.87
2017-11-13T18:37:38.982Z,21.10
2017-11-13T18:40:06.455Z,21.42
2017-11-13T18:42:33.899Z,24.12
2017-11-13T18:45:01.394Z,21.55
2017-11-13T18:47:28.851Z,18.85
2017-11-13T18:49:56.343Z,21.35
2017-11-13T18:52:24.737Z,24.23
2017-11-13T18:54:52.218Z,22.67
2017-11-13T18:57:19.675Z,21.17
2017-11-13T18:59:47.134Z,26.65
2017-11-13T19:02:14.586Z,28.12
2017-11-13T19:04:42.044Z,25.35
2017-11-13T19:07:09.497Z,25.65
2017-11-13T19:09:36.986Z,25.95
2017-11-13T19:12:04.442Z,24.73
2017-11-13T19:14:31.881Z,25.67
2017-11-13T19:16:59.350Z,26.77
2017-11-13T19:19:26.808Z,25.15
2017-11-13T19:21:54.262Z,28.48
2017-11-13T19:24:21.718Z,26.62
2017-11-13T19:26:49.193Z,24.50
2017-11-13T19:29:16.635Z,24.35
2017-11-13T19:31:44.086Z,25.45
2017-11-13T19:34:11.659Z,23.52
2017-11-13T19:36:39.119Z,23.15
2017-11-13T19:39:06.566Z,26.50
2017-11-13T19:41:34.014Z,27.70
2017-11-13T19:44:01.482Z,27.00
2017-11-13T19:46:28.918Z,30.65
2017-11-13T19:48:56.369Z,29.27
2017-11-13T19:51:23.865Z,33.90
2017-11-13T19:53:51.324Z,33.00
2017-11-13T19:56:20.283Z,34.17
2017-11-13T19:58:47.743Z,28.80
2017-11-13T20:01:15.192Z,29.58
2017-11-13T20:03:42.653Z,30.55
2017-11-13T20:06:10.100Z,28.35
2017-11-13T20:08:37.554Z,27.20
2017-11-13T20:11:05.047Z,33.22
2017-11-13T20:13:33.275Z,23.75
2017-11-13T20:16:00.719Z,21.62
2017-11-13T20:18:28.174Z,21.10
2017-11-13T20:20:55.626Z,23.52
2017-11-13T20:23:23.865Z,24.77
2017-11-13T20:26:04.113Z,26.80
2017-11-13T20:28:31.998Z,27.20
2017-11-13T20:30:59.454Z,23.80
2017-11-13T20:33:26.991Z,24.37
2017-11-13T20:35:54.563Z,25.88
2017-11-13T20:38:22.023Z,25.27
2017-11-13T20:40:49.526Z,23.83
2017-11-13T20:43:17.642Z,28.73
2017-11-13T20:45:45.086Z,27.20
2017-11-13T20:48:12.534Z,27.40
2017-11-13T20:50:40.005Z,26.20
2017-11-13T20:53:07.567Z,28.40
2017-11-13T20:55:35.024Z,28.02
2017-11-13T20:58:02.582Z,29.60
2017-11-13T21:00:30.034Z,29.98
2017-11-13T21:02:57.485Z,30.90
2017-11-13T21:05:24.938Z,30.05
2017-11-13T21:07:52.396Z,32.53
2017-11-13T21:10:19.852Z,28.38
2017-11-13T21:12:47.327Z,28.48
2017-11-13T21:15:14.786Z,27.73
2017-11-13T21:17:42.329Z,25.65
2017-11-13T21:20:09.779Z,26.52
2017-11-13T21:22:37.248Z,24.23
2017-11-13T21:25:04.699Z,25.85
2017-11-13T21:27:32.261Z,26.85
2017-11-13T21:29:59.707Z,27.92
2017-11-13T21:32:27.279Z,27.55
2017-11-13T21:34:54.727Z,26.37
2017-11-13T21:37:22.184Z,28.10
2017-11-13T21:39:49.642Z,28.35
2017-11-13T21:42:17.099Z,25.70
2017-11-13T21:44:44.562Z,25.15
2017-11-13T21:47:12.115Z,27.62
2017-11-13T21:49:39.569Z,24.95
2017-11-13T21:52:07.106Z,24.80
2017-11-13T21:54:34.538Z,24.27
2017-11-13T21:57:01.998Z,24.33
2017-11-13T22:02:34.955Z,23.80
2017-11-13T22:05:02.405Z,25.88
2017-11-13T22:07:29.863Z,24.65
2017-11-13T22:09:57.306Z,25.25
2017-11-13T22:12:24.767Z,24.45
2017-11-13T22:14:52.208Z,24.67
2017-11-13T22:17:19.662Z,26.30
2017-11-13T22:19:47.156Z,22.58
2017-11-13T22:22:14.710Z,25.23
2017-11-13T22:24:42.159Z,22.40
2017-11-13T22:27:09.606Z,23.58
2017-11-13T22:29:37.075Z,28.60
2017-11-13T22:32:04.521Z,30.50
2017-11-13T22:34:31.977Z,27.70
2017-11-13T22:36:59.423Z,33.70
2017-11-13T22:39:26.886Z,37.05
2017-11-13T22:41:54.371Z,39.30
2017-11-13T22:44:21.830Z,39.17
2017-11-13T22:46:49.286Z,36.50
2017-11-13T22:49:16.741Z,41.90
2017-11-13T22:51:44.193Z,36.70
2017-11-13T22:54:11.641Z,33.40
2017-11-13T22:56:39.084Z,37.60
2017-11-13T22:59:06.568Z,37.28
2017-11-13T23:01:34.010Z,33.60
2017-11-13T23:04:01.463Z,27.35
2017-11-13T23:06:28.918Z,31.98
2017-11-13T23:08:56.367Z,29.45
2017-11-13T23:11:23.847Z,30.30
2017-11-13T23:13:51.293Z,31.70
2017-11-13T23:16:18.859Z,32.38
2017-11-13T23:18:46.406Z,36.00
2017-11-13T23:21:13.872Z,34.83
2017-11-13T23:23:41.319Z,35.40
2017-11-13T23:26:08.779Z,29.40
2017-11-13T23:28:36.237Z,31.30
2017-11-13T23:31:03.695Z,29.87
2017-11-13T23:33:31.144Z,33.85
2017-11-13T23:35:58.910Z,31.17
2017-11-13T23:38:26.359Z,31.65
2017-11-13T23:40:53.841Z,30.42
2017-11-13T23:43:21.302Z,31.60
2017-11-13T23:45:48.767Z,37.05
2017-11-13T23:48:16.984Z,33.88
2017-11-13T23:50:44.458Z,34.05
2017-11-13T23:53:11.902Z,31.77
2017-11-13T23:55:39.358Z,32.60
2017-11-13T23:58:07.121Z,37.60
